sensor_id;sensor_type;location;lat;lon;timestamp;P1;durP1;ratioP1;P2;durP2;ratioP2
27800;SDS011;15181;49.112;11.930;2022-09-09T00:00:23;14.25;;;7.93;;
27800;SDS011;15181;49.112;11.930;2022-09-09T00:02:54;8.02;;;7.20;;
27800;SDS011;15181;49.112;11.930;2022-09-09T00:05:29;29.77;;;8.20;;
27800;SDS011;15181;49.112;11.930;2022-09-09T00:08:00;43.58;;;9.95;;
27800;SDS011;15181;49.112;11.930;2022-09-09T00:10:31;37.10;;;9.02;;
27800;SDS011;15181;49.112;11.930;2022-09-09T00:13:05;9.65;;;7.97;;
27800;SDS011;15181;49.112;11.930;2022-09-09T00:15:40;9.73;;;7.07;;
27800;SDS011;15181;49.112;11.930;2022-09-09T00:18:15;29.33;;;8.80;;
27800;SDS011;15181;49.112;11.930;2022-09-09T00:20:47;162.10;;;16.58;;
27800;SDS011;15181;49.112;11.930;2022-09-09T00:23:24;265.88;;;23.48;;
27800;SDS011;15181;49.112;11.930;2022-09-09T00:25:55;197.43;;;19.40;;
27800;SDS011;15181;49.112;11.930;2022-09-09T00:28:33;59.10;;;11.73;;
27800;SDS011;15181;49.112;11.930;2022-09-09T00:31:08;329.58;;;25.77;;
27800;SDS011;15181;49.112;11.930;2022-09-09T00:33:39;301.80;;;26.80;;
27800;SDS011;15181;49.112;11.930;2022-09-09T00:36:09;285.52;;;27.58;;
27800;SDS011;15181;49.112;11.930;2022-09-09T00:38:42;8.50;;;7.78;;
27800;SDS011;15181;49.112;11.930;2022-09-09T00:41:14;8.48;;;7.78;;
27800;SDS011;15181;49.112;11.930;2022-09-09T00:43:52;8.63;;;7.70;;
27800;SDS011;15181;49.112;11.930;2022-09-09T00:49:23;251.15;;;23.83;;
27800;SDS011;15181;49.112;11.930;2022-09-09T00:52:05;229.82;;;22.10;;
27800;SDS011;15181;49.112;11.930;2022-09-09T00:54:45;473.55;;;37.15;;
27800;SDS011;15181;49.112;11.930;2022-09-09T00:57:22;30.50;;;9.55;;
27800;SDS011;15181;49.112;11.930;2022-09-09T00:59:56;16.90;;;8.77;;
27800;SDS011;15181;49.112;11.930;2022-09-09T01:02:40;323.20;;;30.25;;
27800;SDS011;15181;49.112;11.930;2022-09-09T01:05:16;202.57;;;21.17;;
27800;SDS011;15181;49.112;11.930;2022-09-09T01:07:48;57.67;;;11.60;;
27800;SDS011;15181;49.112;11.930;2022-09-09T01:10:17;8.10;;;7.50;;
27800;SDS011;15181;49.112;11.930;2022-09-09T01:12:54;148.30;;;17.02;;
27800;SDS011;15181;49.112;11.930;2022-09-09T01:15:27;88.93;;;13.88;;
27800;SDS011;15181;49.112;11.930;2022-09-09T01:17:58;50.33;;;12.25;;
27800;SDS011;15181;49.112;11.930;2022-09-09T01:20:29;13.35;;;8.48;;
27800;SDS011;15181;49.112;11.930;2022-09-09T01:26:18;8.90;;;8.15;;
27800;SDS011;15181;49.112;11.930;2022-09-09T01:28:50;9.52;;;8.45;;
27800;SDS011;15181;49.112;11.930;2022-09-09T01:31:19;9.00;;;8.10;;
27800;SDS011;15181;49.112;11.930;2022-09-09T01:33:49;9.80;;;8.88;;
27800;SDS011;15181;49.112;11.930;2022-09-09T01:36:21;8.88;;;8.18;;
27800;SDS011;15181;49.112;11.930;2022-09-09T01:38:54;14.13;;;12.80;;
27800;SDS011;15181;49.112;11.930;2022-09-09T01:41:22;10.50;;;9.60;;
27800;SDS011;15181;49.112;11.930;2022-09-09T01:43:49;10.88;;;9.95;;
27800;SDS011;15181;49.112;11.930;2022-09-09T01:46:17;10.55;;;9.60;;
27800;SDS011;15181;49.112;11.930;2022-09-09T01:48:48;10.20;;;9.40;;
27800;SDS011;15181;49.112;11.930;2022-09-09T01:51:16;9.88;;;9.07;;
27800;SDS011;15181;49.112;11.930;2022-09-09T01:53:43;10.73;;;9.88;;
27800;SDS011;15181;49.112;11.930;2022-09-09T01:56:14;10.30;;;9.40;;
27800;SDS011;15181;49.112;11.930;2022-09-09T01:58:52;10.73;;;9.93;;
27800;SDS011;15181;49.112;11.930;2022-09-09T02:01:33;11.02;;;10.05;;
27800;SDS011;15181;49.112;11.930;2022-09-09T02:04:08;11.88;;;10.77;;
27800;SDS011;15181;49.112;11.930;2022-09-09T02:06:46;12.57;;;11.40;;
27800;SDS011;15181;49.112;11.930;2022-09-09T02:09:17;12.10;;;11.10;;
27800;SDS011;15181;49.112;11.930;2022-09-09T02:11:48;13.32;;;12.23;;
27800;SDS011;15181;49.112;11.930;2022-09-09T02:14:27;13.10;;;11.80;;
27800;SDS011;15181;49.112;11.930;2022-09-09T02:16:57;13.00;;;11.88;;
27800;SDS011;15181;49.112;11.930;2022-09-09T02:19:29;14.15;;;12.35;;
27800;SDS011;15181;49.112;11.930;2022-09-09T02:22:01;13.77;;;12.45;;
27800;SDS011;15181;49.112;11.930;2022-09-09T02:24:29;14.50;;;13.30;;
27800;SDS011;15181;49.112;11.930;2022-09-09T02:27:00;15.82;;;14.43;;
27800;SDS011;15181;49.112;11.930;2022-09-09T02:29:33;17.33;;;15.63;;
27800;SDS011;15181;49.112;11.930;2022-09-09T02:32:03;16.83;;;15.43;;
27800;SDS011;15181;49.112;11.930;2022-09-09T02:34:33;18.25;;;16.52;;
27800;SDS011;15181;49.112;11.930;2022-09-09T02:37:02;20.65;;;17.55;;
27800;SDS011;15181;49.112;11.930;2022-09-09T02:39:30;19.52;;;17.02;;
27800;SDS011;15181;49.112;11.930;2022-09-09T02:41:57;29.42;;;19.27;;
27800;SDS011;15181;49.112;11.930;2022-09-09T02:44:24;19.85;;;18.00;;
27800;SDS011;15181;49.112;11.930;2022-09-09T02:47:07;18.83;;;17.08;;
27800;SDS011;15181;49.112;11.930;2022-09-09T02:49:43;20.10;;;16.88;;
27800;SDS011;15181;49.112;11.930;2022-09-09T02:52:18;17.83;;;16.38;;
27800;SDS011;15181;49.112;11.930;2022-09-09T02:54:49;19.63;;;17.60;;
27800;SDS011;15181;49.112;11.930;2022-09-09T02:57:25;30.00;;;18.00;;
27800;SDS011;15181;49.112;11.930;2022-09-09T02:59:56;19.40;;;17.63;;
27800;SDS011;15181;49.112;11.930;2022-09-09T03:02:25;19.60;;;17.80;;
27800;SDS011;15181;49.112;11.930;2022-09-09T03:04:52;18.63;;;16.83;;
27800;SDS011;15181;49.112;11.930;2022-09-09T03:07:19;37.10;;;21.58;;
27800;SDS011;15181;49.112;11.930;2022-09-09T03:09:46;19.60;;;17.80;;
27800;SDS011;15181;49.112;11.930;2022-09-09T03:12:13;25.98;;;18.50;;
27800;SDS011;15181;49.112;11.930;2022-09-09T03:14:41;19.10;;;17.40;;
27800;SDS011;15181;49.112;11.930;2022-09-09T03:17:09;19.45;;;17.75;;
27800;SDS011;15181;49.112;11.930;2022-09-09T03:19:37;20.92;;;18.90;;
27800;SDS011;15181;49.112;11.930;2022-09-09T03:22:05;22.75;;;19.23;;
27800;SDS011;15181;49.112;11.930;2022-09-09T03:24:32;19.85;;;17.88;;
27800;SDS011;15181;49.112;11.930;2022-09-09T03:26:58;19.67;;;18.02;;
27800;SDS011;15181;49.112;11.930;2022-09-09T03:29:25;20.42;;;18.63;;
27800;SDS011;15181;49.112;11.930;2022-09-09T03:31:52;20.92;;;18.92;;
27800;SDS011;15181;49.112;11.930;2022-09-09T03:34:19;21.20;;;19.30;;
27800;SDS011;15181;49.112;11.930;2022-09-09T03:36:48;22.23;;;20.23;;
27800;SDS011;15181;49.112;11.930;2022-09-09T03:39:15;22.65;;;20.48;;
27800;SDS011;15181;49.112;11.930;2022-09-09T03:41:41;22.88;;;20.90;;
27800;SDS011;15181;49.112;11.930;2022-09-09T03:44:12;23.08;;;21.10;;
27800;SDS011;15181;49.112;11.930;2022-09-09T03:46:39;24.98;;;22.67;;
27800;SDS011;15181;49.112;11.930;2022-09-09T03:49:06;23.63;;;21.63;;
27800;SDS011;15181;49.112;11.930;2022-09-09T03:51:35;22.48;;;20.67;;
27800;SDS011;15181;49.112;11.930;2022-09-09T03:54:04;21.98;;;20.02;;
27800;SDS011;15181;49.112;11.930;2022-09-09T03:56:33;22.77;;;20.77;;
27800;SDS011;15181;49.112;11.930;2022-09-09T03:59:00;20.58;;;18.88;;
27800;SDS011;15181;49.112;11.930;2022-09-09T04:01:27;21.83;;;20.08;;
27800;SDS011;15181;49.112;11.930;2022-09-09T04:03:55;21.83;;;20.08;;
27800;SDS011;15181;49.112;11.930;2022-09-09T04:06:23;23.30;;;21.38;;
27800;SDS011;15181;49.112;11.930;2022-09-09T04:08:51;21.60;;;19.70;;
27800;SDS011;15181;49.112;11.930;2022-09-09T04:11:19;22.02;;;20.20;;
27800;SDS011;15181;49.112;11.930;2022-09-09T04:13:46;21.55;;;19.85;;
27800;SDS011;15181;49.112;11.930;2022-09-09T04:16:14;21.77;;;20.02;;
27800;SDS011;15181;49.112;11.930;2022-09-09T04:18:41;20.58;;;18.98;;
27800;SDS011;15181;49.112;11.930;2022-09-09T04:21:08;21.70;;;20.00;;
27800;SDS011;15181;49.112;11.930;2022-09-09T04:23:37;21.88;;;20.17;;
27800;SDS011;15181;49.112;11.930;2022-09-09T04:26:04;21.80;;;20.00;;
27800;SDS011;15181;49.112;11.930;2022-09-09T04:28:33;20.85;;;19.02;;
27800;SDS011;15181;49.112;11.930;2022-09-09T04:31:05;22.77;;;20.77;;
27800;SDS011;15181;49.112;11.930;2022-09-09T04:33:34;20.38;;;18.58;;
27800;SDS011;15181;49.112;11.930;2022-09-09T04:36:01;21.33;;;19.55;;
27800;SDS011;15181;49.112;11.930;2022-09-09T04:38:28;22.60;;;20.70;;
27800;SDS011;15181;49.112;11.930;2022-09-09T04:40:55;21.58;;;19.80;;
27800;SDS011;15181;49.112;11.930;2022-09-09T04:43:22;22.02;;;20.20;;
27800;SDS011;15181;49.112;11.930;2022-09-09T04:45:52;20.60;;;19.00;;
27800;SDS011;15181;49.112;11.930;2022-09-09T04:48:19;21.20;;;19.50;;
27800;SDS011;15181;49.112;11.930;2022-09-09T04:50:53;21.90;;;20.05;;
27800;SDS011;15181;49.112;11.930;2022-09-09T04:53:21;19.77;;;18.17;;
27800;SDS011;15181;49.112;11.930;2022-09-09T04:55:48;22.38;;;20.55;;
27800;SDS011;15181;49.112;11.930;2022-09-09T04:58:15;21.42;;;19.52;;
27800;SDS011;15181;49.112;11.930;2022-09-09T05:00:43;21.80;;;20.00;;
27800;SDS011;15181;49.112;11.930;2022-09-09T05:03:12;21.35;;;19.55;;
27800;SDS011;15181;49.112;11.930;2022-09-09T05:05:39;21.90;;;20.02;;
27800;SDS011;15181;49.112;11.930;2022-09-09T05:08:07;21.88;;;20.13;;
27800;SDS011;15181;49.112;11.930;2022-09-09T05:10:36;21.55;;;19.75;;
27800;SDS011;15181;49.112;11.930;2022-09-09T05:13:04;21.55;;;19.73;;
27800;SDS011;15181;49.112;11.930;2022-09-09T05:15:31;21.35;;;19.45;;
27800;SDS011;15181;49.112;11.930;2022-09-09T05:17:59;20.85;;;19.15;;
27800;SDS011;15181;49.112;11.930;2022-09-09T05:20:28;20.63;;;18.83;;
27800;SDS011;15181;49.112;11.930;2022-09-09T05:22:56;20.98;;;19.08;;
27800;SDS011;15181;49.112;11.930;2022-09-09T05:25:23;20.67;;;18.88;;
27800;SDS011;15181;49.112;11.930;2022-09-09T05:27:51;20.08;;;18.27;;
27800;SDS011;15181;49.112;11.930;2022-09-09T05:30:18;19.70;;;18.02;;
27800;SDS011;15181;49.112;11.930;2022-09-09T05:32:45;19.35;;;17.75;;
27800;SDS011;15181;49.112;11.930;2022-09-09T05:35:13;18.48;;;16.83;;
27800;SDS011;15181;49.112;11.930;2022-09-09T05:37:42;18.33;;;16.75;;
27800;SDS011;15181;49.112;11.930;2022-09-09T05:40:11;17.15;;;15.75;;
27800;SDS011;15181;49.112;11.930;2022-09-09T05:42:37;17.98;;;16.38;;
27800;SDS011;15181;49.112;11.930;2022-09-09T05:45:05;18.50;;;17.00;;
27800;SDS011;15181;49.112;11.930;2022-09-09T05:47:33;17.95;;;16.45;;
27800;SDS011;15181;49.112;11.930;2022-09-09T05:50:00;17.88;;;16.38;;
27800;SDS011;15181;49.112;11.930;2022-09-09T05:52:27;17.73;;;16.23;;
27800;SDS011;15181;49.112;11.930;2022-09-09T05:54:55;18.75;;;17.00;;
27800;SDS011;15181;49.112;11.930;2022-09-09T05:57:22;19.13;;;17.52;;
27800;SDS011;15181;49.112;11.930;2022-09-09T05:59:49;17.33;;;15.93;;
27800;SDS011;15181;49.112;11.930;2022-09-09T06:02:16;18.60;;;17.08;;
27800;SDS011;15181;49.112;11.930;2022-09-09T06:04:43;18.05;;;16.65;;
27800;SDS011;15181;49.112;11.930;2022-09-09T06:07:09;18.80;;;17.20;;
27800;SDS011;15181;49.112;11.930;2022-09-09T06:09:36;18.80;;;17.25;;
27800;SDS011;15181;49.112;11.930;2022-09-09T06:12:05;19.00;;;17.42;;
27800;SDS011;15181;49.112;11.930;2022-09-09T06:14:32;17.63;;;16.13;;
27800;SDS011;15181;49.112;11.930;2022-09-09T06:16:59;18.92;;;17.23;;
27800;SDS011;15181;49.112;11.930;2022-09-09T06:19:27;19.67;;;18.08;;
27800;SDS011;15181;49.112;11.930;2022-09-09T06:21:55;18.70;;;17.15;;
27800;SDS011;15181;49.112;11.930;2022-09-09T06:24:22;21.42;;;19.63;;
27800;SDS011;15181;49.112;11.930;2022-09-09T06:26:49;21.73;;;19.92;;
27800;SDS011;15181;49.112;11.930;2022-09-09T06:29:17;21.10;;;19.35;;
27800;SDS011;15181;49.112;11.930;2022-09-09T06:31:44;21.55;;;19.67;;
27800;SDS011;15181;49.112;11.930;2022-09-09T06:34:11;22.45;;;20.65;;
27800;SDS011;15181;49.112;11.930;2022-09-09T06:36:38;22.05;;;19.95;;
27800;SDS011;15181;49.112;11.930;2022-09-09T06:39:05;21.92;;;20.10;;
27800;SDS011;15181;49.112;11.930;2022-09-09T06:41:33;21.15;;;19.35;;
27800;SDS011;15181;49.112;11.930;2022-09-09T06:44:00;21.98;;;19.85;;
27800;SDS011;15181;49.112;11.930;2022-09-09T06:46:29;20.88;;;19.08;;
27800;SDS011;15181;49.112;11.930;2022-09-09T06:48:58;18.92;;;17.42;;
27800;SDS011;15181;49.112;11.930;2022-09-09T06:51:26;18.80;;;17.10;;
27800;SDS011;15181;49.112;11.930;2022-09-09T06:53:55;17.02;;;15.63;;
27800;SDS011;15181;49.112;11.930;2022-09-09T06:56:23;17.13;;;15.50;;
27800;SDS011;15181;49.112;11.930;2022-09-09T06:58:53;15.52;;;14.23;;
27800;SDS011;15181;49.112;11.930;2022-09-09T07:01:21;13.80;;;12.70;;
27800;SDS011;15181;49.112;11.930;2022-09-09T07:03:51;13.63;;;12.50;;
27800;SDS011;15181;49.112;11.930;2022-09-09T07:06:20;13.90;;;12.70;;
27800;SDS011;15181;49.112;11.930;2022-09-09T07:08:49;13.07;;;11.98;;
27800;SDS011;15181;49.112;11.930;2022-09-09T07:11:17;12.35;;;11.35;;
27800;SDS011;15181;49.112;11.930;2022-09-09T07:13:45;11.85;;;10.95;;
27800;SDS011;15181;49.112;11.930;2022-09-09T07:16:13;11.40;;;10.48;;
27800;SDS011;15181;49.112;11.930;2022-09-09T07:18:41;11.80;;;10.80;;
27800;SDS011;15181;49.112;11.930;2022-09-09T07:21:10;11.95;;;10.55;;
27800;SDS011;15181;49.112;11.930;2022-09-09T07:23:38;11.13;;;10.18;;
27800;SDS011;15181;49.112;11.930;2022-09-09T07:26:07;11.32;;;10.23;;
27800;SDS011;15181;49.112;11.930;2022-09-09T07:28:35;11.73;;;10.73;;
27800;SDS011;15181;49.112;11.930;2022-09-09T07:31:03;11.80;;;10.90;;
27800;SDS011;15181;49.112;11.930;2022-09-09T07:33:32;11.75;;;10.85;;
27800;SDS011;15181;49.112;11.930;2022-09-09T07:36:04;11.85;;;10.95;;
27800;SDS011;15181;49.112;11.930;2022-09-09T07:38:36;12.65;;;11.63;;
27800;SDS011;15181;49.112;11.930;2022-09-09T07:41:05;11.65;;;10.75;;
27800;SDS011;15181;49.112;11.930;2022-09-09T07:43:34;12.35;;;11.20;;
27800;SDS011;15181;49.112;11.930;2022-09-09T07:46:01;12.35;;;11.35;;
27800;SDS011;15181;49.112;11.930;2022-09-09T07:48:28;11.80;;;10.90;;
27800;SDS011;15181;49.112;11.930;2022-09-09T07:51:02;11.60;;;10.68;;
27800;SDS011;15181;49.112;11.930;2022-09-09T07:53:32;11.57;;;10.57;;
27800;SDS011;15181;49.112;11.930;2022-09-09T07:56:03;11.52;;;10.63;;
27800;SDS011;15181;49.112;11.930;2022-09-09T07:58:34;11.40;;;10.48;;
27800;SDS011;15181;49.112;11.930;2022-09-09T08:01:05;11.40;;;10.40;;
27800;SDS011;15181;49.112;11.930;2022-09-09T08:03:33;11.15;;;10.25;;
27800;SDS011;15181;49.112;11.930;2022-09-09T08:06:00;11.40;;;10.60;;
27800;SDS011;15181;49.112;11.930;2022-09-09T08:08:28;11.57;;;10.68;;
27800;SDS011;15181;49.112;11.930;2022-09-09T08:11:01;11.45;;;10.45;;
27800;SDS011;15181;49.112;11.930;2022-09-09T08:13:32;11.35;;;10.45;;
27800;SDS011;15181;49.112;11.930;2022-09-09T08:16:06;11.18;;;10.23;;
27800;SDS011;15181;49.112;11.930;2022-09-09T08:18:34;11.32;;;10.43;;
27800;SDS011;15181;49.112;11.930;2022-09-09T08:21:07;11.40;;;10.50;;
27800;SDS011;15181;49.112;11.930;2022-09-09T08:23:36;11.27;;;10.35;;
27800;SDS011;15181;49.112;11.930;2022-09-09T08:26:06;10.98;;;10.18;;
27800;SDS011;15181;49.112;11.930;2022-09-09T08:28:36;10.88;;;9.88;;
27800;SDS011;15181;49.112;11.930;2022-09-09T08:31:05;10.52;;;9.73;;
27800;SDS011;15181;49.112;11.930;2022-09-09T08:33:33;10.85;;;9.80;;
27800;SDS011;15181;49.112;11.930;2022-09-09T08:36:01;9.85;;;8.93;;
27800;SDS011;15181;49.112;11.930;2022-09-09T08:38:28;9.73;;;8.82;;
27800;SDS011;15181;49.112;11.930;2022-09-09T08:40:56;9.35;;;8.45;;
27800;SDS011;15181;49.112;11.930;2022-09-09T08:43:43;9.05;;;8.35;;
27800;SDS011;15181;49.112;11.930;2022-09-09T08:46:14;8.50;;;7.80;;
27800;SDS011;15181;49.112;11.930;2022-09-09T08:48:51;8.15;;;7.38;;
27800;SDS011;15181;49.112;11.930;2022-09-09T08:51:23;8.77;;;7.88;;
27800;SDS011;15181;49.112;11.930;2022-09-09T08:53:52;7.30;;;6.65;;
27800;SDS011;15181;49.112;11.930;2022-09-09T08:56:23;7.35;;;6.65;;
27800;SDS011;15181;49.112;11.930;2022-09-09T08:58:52;8.27;;;6.65;;
27800;SDS011;15181;49.112;11.930;2022-09-09T09:01:29;6.85;;;6.25;;
27800;SDS011;15181;49.112;11.930;2022-09-09T09:04:11;6.80;;;6.20;;
27800;SDS011;15181;49.112;11.930;2022-09-09T09:07:01;7.22;;;6.63;;
27800;SDS011;15181;49.112;11.930;2022-09-09T09:09:36;7.07;;;6.47;;
27800;SDS011;15181;49.112;11.930;2022-09-09T09:12:16;7.32;;;6.60;;
27800;SDS011;15181;49.112;11.930;2022-09-09T09:14:46;7.22;;;6.63;;
27800;SDS011;15181;49.112;11.930;2022-09-09T09:17:15;6.70;;;6.15;;
27800;SDS011;15181;49.112;11.930;2022-09-09T09:19:44;7.20;;;6.53;;
27800;SDS011;15181;49.112;11.930;2022-09-09T09:22:14;9.73;;;6.10;;
27800;SDS011;15181;49.112;11.930;2022-09-09T09:24:47;6.95;;;6.35;;
27800;SDS011;15181;49.112;11.930;2022-09-09T09:27:22;6.78;;;6.18;;
27800;SDS011;15181;49.112;11.930;2022-09-09T09:29:58;7.80;;;6.03;;
27800;SDS011;15181;49.112;11.930;2022-09-09T09:32:28;6.65;;;5.63;;
27800;SDS011;15181;49.112;11.930;2022-09-09T09:34:59;6.63;;;6.00;;
27800;SDS011;15181;49.112;11.930;2022-09-09T09:37:34;6.53;;;5.93;;
27800;SDS011;15181;49.112;11.930;2022-09-09T09:40:07;6.38;;;5.88;;
27800;SDS011;15181;49.112;11.930;2022-09-09T09:42:37;6.68;;;6.03;;
27800;SDS011;15181;49.112;11.930;2022-09-09T09:45:08;6.70;;;6.10;;
27800;SDS011;15181;49.112;11.930;2022-09-09T09:47:43;6.65;;;6.00;;
27800;SDS011;15181;49.112;11.930;2022-09-09T09:50:17;6.88;;;6.18;;
27800;SDS011;15181;49.112;11.930;2022-09-09T09:55:20;6.93;;;6.32;;
27800;SDS011;15181;49.112;11.930;2022-09-09T09:57:49;6.60;;;5.97;;
27800;SDS011;15181;49.112;11.930;2022-09-09T10:00:17;7.38;;;6.22;;
27800;SDS011;15181;49.112;11.930;2022-09-09T10:02:46;6.07;;;5.57;;
27800;SDS011;15181;49.112;11.930;2022-09-09T10:05:15;6.57;;;5.90;;
27800;SDS011;15181;49.112;11.930;2022-09-09T10:07:43;7.53;;;6.05;;
27800;SDS011;15181;49.112;11.930;2022-09-09T10:10:12;6.22;;;5.65;;
27800;SDS011;15181;49.112;11.930;2022-09-09T10:15:27;5.90;;;5.40;;
27800;SDS011;15181;49.112;11.930;2022-09-09T10:18:04;6.05;;;5.55;;
27800;SDS011;15181;49.112;11.930;2022-09-09T10:20:45;6.03;;;5.53;;
27800;SDS011;15181;49.112;11.930;2022-09-09T10:23:26;6.32;;;5.72;;
27800;SDS011;15181;49.112;11.930;2022-09-09T10:26:08;6.30;;;5.80;;
27800;SDS011;15181;49.112;11.930;2022-09-09T10:28:56;7.13;;;5.70;;
27800;SDS011;15181;49.112;11.930;2022-09-09T10:31:34;6.22;;;5.72;;
27800;SDS011;15181;49.112;11.930;2022-09-09T10:34:12;6.28;;;5.68;;
27800;SDS011;15181;49.112;11.930;2022-09-09T10:36:47;6.35;;;5.85;;
27800;SDS011;15181;49.112;11.930;2022-09-09T10:39:18;6.22;;;5.72;;
27800;SDS011;15181;49.112;11.930;2022-09-09T10:42:01;6.20;;;5.60;;
27800;SDS011;15181;49.112;11.930;2022-09-09T10:44:36;6.00;;;5.50;;
27800;SDS011;15181;49.112;11.930;2022-09-09T10:50:18;6.03;;;5.53;;
27800;SDS011;15181;49.112;11.930;2022-09-09T10:52:58;6.40;;;5.80;;
27800;SDS011;15181;49.112;11.930;2022-09-09T10:55:33;5.82;;;5.35;;
27800;SDS011;15181;49.112;11.930;2022-09-09T10:58:05;6.30;;;5.80;;
27800;SDS011;15181;49.112;11.930;2022-09-09T11:00:38;6.20;;;5.70;;
27800;SDS011;15181;49.112;11.930;2022-09-09T11:05:43;6.18;;;5.68;;
27800;SDS011;15181;49.112;11.930;2022-09-09T11:08:15;6.30;;;5.80;;
27800;SDS011;15181;49.112;11.930;2022-09-09T11:10:46;6.57;;;5.95;;
27800;SDS011;15181;49.112;11.930;2022-09-09T11:13:18;6.20;;;5.70;;
27800;SDS011;15181;49.112;11.930;2022-09-09T11:15:52;6.28;;;5.78;;
27800;SDS011;15181;49.112;11.930;2022-09-09T11:18:24;6.22;;;5.72;;
27800;SDS011;15181;49.112;11.930;2022-09-09T11:20:56;5.85;;;5.45;;
27800;SDS011;15181;49.112;11.930;2022-09-09T11:23:27;6.50;;;5.97;;
27800;SDS011;15181;49.112;11.930;2022-09-09T11:26:02;6.40;;;5.90;;
27800;SDS011;15181;49.112;11.930;2022-09-09T11:28:39;6.45;;;5.90;;
27800;SDS011;15181;49.112;11.930;2022-09-09T11:31:27;6.63;;;6.13;;
27800;SDS011;15181;49.112;11.930;2022-09-09T11:34:11;5.97;;;5.57;;
27800;SDS011;15181;49.112;11.930;2022-09-09T11:36:54;6.25;;;5.70;;
27800;SDS011;15181;49.112;11.930;2022-09-09T11:42:22;6.40;;;5.90;;
27800;SDS011;15181;49.112;11.930;2022-09-09T11:44:50;6.47;;;5.97;;
27800;SDS011;15181;49.112;11.930;2022-09-09T11:47:24;6.70;;;6.03;;
27800;SDS011;15181;49.112;11.930;2022-09-09T11:49:55;6.50;;;6.00;;
27800;SDS011;15181;49.112;11.930;2022-09-09T11:52:37;6.63;;;6.00;;
27800;SDS011;15181;49.112;11.930;2022-09-09T11:55:10;6.50;;;5.90;;
27800;SDS011;15181;49.112;11.930;2022-09-09T11:57:56;6.45;;;5.95;;
27800;SDS011;15181;49.112;11.930;2022-09-09T12:00:29;5.88;;;5.40;;
27800;SDS011;15181;49.112;11.930;2022-09-09T12:03:01;5.90;;;5.40;;
27800;SDS011;15181;49.112;11.930;2022-09-09T12:05:35;6.28;;;5.78;;
27800;SDS011;15181;49.112;11.930;2022-09-09T12:08:04;6.57;;;6.03;;
27800;SDS011;15181;49.112;11.930;2022-09-09T12:10:33;6.50;;;6.00;;
27800;SDS011;15181;49.112;11.930;2022-09-09T12:13:08;6.22;;;5.75;;
27800;SDS011;15181;49.112;11.930;2022-09-09T12:15:46;6.50;;;6.00;;
27800;SDS011;15181;49.112;11.930;2022-09-09T12:18:16;6.10;;;5.60;;
27800;SDS011;15181;49.112;11.930;2022-09-09T12:20:51;6.33;;;5.83;;
27800;SDS011;15181;49.112;11.930;2022-09-09T12:23:33;6.38;;;5.90;;
27800;SDS011;15181;49.112;11.930;2022-09-09T12:26:12;6.10;;;5.60;;
27800;SDS011;15181;49.112;11.930;2022-09-09T12:29:02;6.40;;;5.88;;
27800;SDS011;15181;49.112;11.930;2022-09-09T12:31:39;6.50;;;6.00;;
27800;SDS011;15181;49.112;11.930;2022-09-09T12:34:15;6.85;;;6.25;;
27800;SDS011;15181;49.112;11.930;2022-09-09T12:36:45;6.80;;;6.20;;
27800;SDS011;15181;49.112;11.930;2022-09-09T12:39:18;6.70;;;6.20;;
27800;SDS011;15181;49.112;11.930;2022-09-09T12:41:52;6.65;;;6.15;;
27800;SDS011;15181;49.112;11.930;2022-09-09T12:44:22;6.75;;;6.25;;
27800;SDS011;15181;49.112;11.930;2022-09-09T12:46:50;6.50;;;6.00;;
27800;SDS011;15181;49.112;11.930;2022-09-09T12:49:28;6.20;;;5.78;;
27800;SDS011;15181;49.112;11.930;2022-09-09T12:51:59;6.63;;;6.03;;
27800;SDS011;15181;49.112;11.930;2022-09-09T12:54:30;6.43;;;5.80;;
27800;SDS011;15181;49.112;11.930;2022-09-09T12:56:58;6.60;;;6.10;;
27800;SDS011;15181;49.112;11.930;2022-09-09T12:59:25;6.72;;;6.13;;
27800;SDS011;15181;49.112;11.930;2022-09-09T13:02:00;6.32;;;5.82;;
27800;SDS011;15181;49.112;11.930;2022-09-09T13:04:29;6.90;;;6.13;;
27800;SDS011;15181;49.112;11.930;2022-09-09T13:07:05;6.72;;;6.13;;
27800;SDS011;15181;49.112;11.930;2022-09-09T13:09:36;7.13;;;6.05;;
27800;SDS011;15181;49.112;11.930;2022-09-09T13:12:03;6.70;;;5.97;;
27800;SDS011;15181;49.112;11.930;2022-09-09T13:14:32;6.25;;;5.75;;
27800;SDS011;15181;49.112;11.930;2022-09-09T13:17:03;6.18;;;5.60;;
27800;SDS011;15181;49.112;11.930;2022-09-09T13:19:34;7.15;;;6.10;;
27800;SDS011;15181;49.112;11.930;2022-09-09T13:22:11;6.80;;;6.00;;
27800;SDS011;15181;49.112;11.930;2022-09-09T13:24:39;6.30;;;5.70;;
27800;SDS011;15181;49.112;11.930;2022-09-09T13:27:20;6.70;;;6.00;;
27800;SDS011;15181;49.112;11.930;2022-09-09T13:29:53;6.10;;;5.60;;
27800;SDS011;15181;49.112;11.930;2022-09-09T13:32:22;6.47;;;5.88;;
27800;SDS011;15181;49.112;11.930;2022-09-09T13:34:51;6.50;;;5.90;;
27800;SDS011;15181;49.112;11.930;2022-09-09T13:37:22;7.53;;;6.00;;
27800;SDS011;15181;49.112;11.930;2022-09-09T13:42:24;6.40;;;5.80;;
27800;SDS011;15181;49.112;11.930;2022-09-09T13:44:52;6.07;;;5.50;;
27800;SDS011;15181;49.112;11.930;2022-09-09T13:47:21;6.40;;;5.80;;
27800;SDS011;15181;49.112;11.930;2022-09-09T13:49:54;6.55;;;5.95;;
27800;SDS011;15181;49.112;11.930;2022-09-09T13:52:21;6.88;;;6.00;;
27800;SDS011;15181;49.112;11.930;2022-09-09T13:54:48;6.30;;;5.70;;
27800;SDS011;15181;49.112;11.930;2022-09-09T13:57:16;8.95;;;5.63;;
27800;SDS011;15181;49.112;11.930;2022-09-09T13:59:45;6.30;;;5.80;;
27800;SDS011;15181;49.112;11.930;2022-09-09T14:02:12;6.53;;;5.90;;
27800;SDS011;15181;49.112;11.930;2022-09-09T14:04:39;6.82;;;6.15;;
27800;SDS011;15181;49.112;11.930;2022-09-09T14:07:09;6.80;;;6.20;;
27800;SDS011;15181;49.112;11.930;2022-09-09T14:09:39;6.38;;;5.78;;
27800;SDS011;15181;49.112;11.930;2022-09-09T14:12:08;6.70;;;6.10;;
27800;SDS011;15181;49.112;11.930;2022-09-09T14:14:35;6.60;;;5.90;;
27800;SDS011;15181;49.112;11.930;2022-09-09T14:17:02;6.65;;;6.15;;
27800;SDS011;15181;49.112;11.930;2022-09-09T14:19:29;6.70;;;6.10;;
27800;SDS011;15181;49.112;11.930;2022-09-09T14:21:56;6.72;;;6.10;;
27800;SDS011;15181;49.112;11.930;2022-09-09T14:24:25;6.78;;;6.07;;
27800;SDS011;15181;49.112;11.930;2022-09-09T14:26:52;7.53;;;6.78;;
27800;SDS011;15181;49.112;11.930;2022-09-09T14:29:19;6.82;;;6.22;;
27800;SDS011;15181;49.112;11.930;2022-09-09T14:31:46;7.18;;;6.55;;
27800;SDS011;15181;49.112;11.930;2022-09-09T14:34:13;7.05;;;6.45;;
27800;SDS011;15181;49.112;11.930;2022-09-09T14:36:40;7.63;;;6.50;;
27800;SDS011;15181;49.112;11.930;2022-09-09T14:39:07;7.47;;;6.20;;
27800;SDS011;15181;49.112;11.930;2022-09-09T14:41:35;6.95;;;6.35;;
27800;SDS011;15181;49.112;11.930;2022-09-09T14:44:02;6.75;;;6.15;;
27800;SDS011;15181;49.112;11.930;2022-09-09T14:46:29;7.90;;;6.40;;
27800;SDS011;15181;49.112;11.930;2022-09-09T14:48:58;7.03;;;6.40;;
27800;SDS011;15181;49.112;11.930;2022-09-09T14:51:25;7.15;;;6.47;;
27800;SDS011;15181;49.112;11.930;2022-09-09T14:53:53;6.88;;;6.28;;
27800;SDS011;15181;49.112;11.930;2022-09-09T14:56:24;6.80;;;6.30;;
27800;SDS011;15181;49.112;11.930;2022-09-09T14:58:54;6.68;;;6.07;;
27800;SDS011;15181;49.112;11.930;2022-09-09T15:01:22;6.60;;;6.10;;
27800;SDS011;15181;49.112;11.930;2022-09-09T15:03:52;6.93;;;6.25;;